Relevés stations proches


LFBH - La Rochelle, Charente Maritime
Mise à jour: 15/12/2018 07:30
Brume, Nuageux
Brume, Nuageux
 Wind from S
Vent: S 24 km/h
Température: 4°C
Refroidissement éolien: -1°C
Point de rosée: 3°C
Humidité: 93%
Baromètre: 1018 hPa
Ciel: Brume
Ciel: Nuageux
Visibilité: 5 km
Détails plafond nuageux: Partiellement nuageux 274 m
Nuageux 396 m
Nuageux 640 m
2018/12/15 07:30 LFBH 150730Z AUTO 18013KT 5000 BR SCT009 BKN013 BKN021 04/03 Q1018 TEMPO OVC004
LFBC - Cognac, Charente
Mise à jour: 15/12/2018 07:30
Couvert
Couvert
 Wind from ESE
Vent: ESE 6 km/h
Température: 7°C
Point de rosée: 7°C
Humidité: 100%
Baromètre: 1019 hPa
Ciel: Couvert
Visibilité: 8 km
Détails plafond nuageux: Partiellement nuageux 1189 m
Couvert 1463 m
2018/12/15 07:30 LFBC 150730Z AUTO 11003KT 8000 SCT039 OVC048 07/07 Q1019
 
LFBU - Angoulème, Charente
Mise à jour: 15/12/2018 07:30
Couvert
Couvert
 Wind from SE
Vent: SE 9 km/h
Température: 1°C
Refroidissement éolien: -2°C
Point de rosée: -1°C
Humidité: 87%
Baromètre: 1019 hPa
Ciel: Couvert
Visibilité: 10 km
Détails plafond nuageux: Peu nuageux 488 m
Couvert 2073 m
2018/12/15 07:30 LFBU 150730Z AUTO 13005KT 090V180 9999 FEW016 OVC068 01/M01 Q1019 TEMPO BKN005 BKN030
LFRI - La Roche sur Yon, Vendée
Mise à jour: 15/12/2018 07:30
Brume, Couvert
Brume, Couvert
 Wind from SSE
Vent: SSE 20 km/h
Température: 1°C
Refroidissement éolien: -4°C
Point de rosée: 1°C
Humidité: 100%
Baromètre: 1017 hPa
Ciel: Brume
Ciel: Couvert
Visibilité: 5 km
Détails plafond nuageux: Couvert 152 m
2018/12/15 07:30 LFRI 150730Z AUTO 15011KT 4500 BR OVC005 01/01 Q1017 TEMPO RA
 
LFBI - Poitiers, Vienne
Mise à jour: 15/12/2018 07:30
Neige faible, Pluie, Couvert
Neige faible, Pluie, Couvert
 Wind from SE
Vent: SE 11 km/h
Température: 0°C
Refroidissement éolien: -4°C
Point de rosée: -2°C
Humidité: 87%
Baromètre: 1019 hPa
Ciel: Neige faible, Pluie
Ciel: Couvert
Visibilité: 7 km
Détails plafond nuageux: Couvert 396 m
2018/12/15 07:30 LFBI 150730Z AUTO 13006KT 100V160 7000 -SNRA OVC013 M00/M02 Q1019 TEMPO 2000 RA OVC004
LFRS - Nantes, Loire Atlantique
Mise à jour: 15/12/2018 07:30
Pluie légère, Couvert
Pluie légère, Couvert
 Wind from SE
Vent: SE 22 km/h
Température: 2°C
Refroidissement éolien: -3°C
Point de rosée: 1°C
Humidité: 93%
Baromètre: 1016 hPa
Ciel: Pluie légère
Ciel: Couvert
Visibilité: 6 km
Détails plafond nuageux: Couvert 274 m
2018/12/15 07:30 LFRS 150730Z AUTO 14012KT 6000 -RA OVC009 02/01 Q1016 TEMPO 3000 RA
 
LFBD - Bordeaux, Gironde
Mise à jour: 15/12/2018 07:30
Brume, Nuageux
Brume, Nuageux
 Wind from SE
Vent: SE 13 km/h
Température: 4°C
Refroidissement éolien: 1°C
Point de rosée: 4°C
Humidité: 100%
Baromètre: 1020 hPa
Ciel: Brume
Ciel: Nuageux
Visibilité: 5 km
Détails plafond nuageux: Partiellement nuageux 122 m
Partiellement nuageux 610 m
Nuageux 1036 m
2018/12/15 07:30 LFBD 150730Z AUTO 13007KT 5000 BR SCT004 SCT020 BKN034 04/04 Q1020 TEMPO BKN004 BKN030
LFBL - Limoges, Haute Vienne
Mise à jour: 15/12/2018 07:30
Brume, Partiellement nuageux
Brume, Partiellement nuageux
 Wind from E
Vent: E 9 km/h
Température: -2°C
Refroidissement éolien: -6°C
Point de rosée: -3°C
Humidité: 93%
Baromètre: 1020 hPa
Ciel: Brume
Ciel: Partiellement nuageux
Visibilité: 5 km
2018/12/15 07:30 LFBL 150730Z AUTO 10005KT 4500 BR NSC M02/M03 Q1020 BECMG 7000 NSW